createdAt,value
2023-04-21T00:04:15.996Z,5.65
2023-04-21T00:09:20.562Z,5.80
2023-04-21T00:14:24.883Z,6.35
2023-04-21T00:19:30.792Z,6.47
2023-04-21T00:24:34.885Z,7.43
2023-04-21T00:29:40.113Z,7.03
2023-04-21T00:34:44.057Z,7.28
2023-04-21T00:39:49.033Z,7.60
2023-04-21T00:44:53.305Z,10.27
2023-04-21T00:49:58.149Z,7.07
2023-04-21T00:55:03.726Z,8.57
2023-04-21T01:00:09.694Z,7.45
2023-04-21T01:05:13.700Z,8.90
2023-04-21T01:10:18.603Z,7.68
2023-04-21T01:15:24.450Z,7.57
2023-04-21T01:20:30.649Z,9.40
2023-04-21T01:25:34.703Z,8.65
2023-04-21T01:30:40.653Z,7.20
2023-04-21T01:35:44.764Z,7.45
2023-04-21T01:40:52.106Z,8.05
2023-04-21T01:45:58.759Z,8.95
2023-04-21T01:51:02.727Z,8.27
2023-04-21T01:56:07.209Z,7.35
2023-04-21T02:01:11.537Z,9.38
2023-04-21T02:06:15.676Z,7.55
2023-04-21T02:11:19.828Z,8.38
2023-04-21T02:16:27.463Z,10.25
2023-04-21T02:21:33.195Z,8.63
2023-04-21T02:26:37.316Z,6.45
2023-04-21T02:31:57.420Z,8.02
2023-04-21T02:37:03.365Z,7.72
2023-04-21T02:42:07.285Z,8.30
2023-04-21T02:47:11.389Z,10.63
2023-04-21T02:52:15.258Z,9.45
2023-04-21T02:57:19.312Z,7.18
2023-04-21T03:02:23.213Z,6.60
2023-04-21T03:07:27.678Z,10.00
2023-04-21T03:12:32.645Z,7.28
2023-04-21T03:17:36.609Z,7.30
2023-04-21T03:22:40.988Z,7.85
2023-04-21T03:27:46.963Z,10.00
2023-04-21T03:32:51.686Z,7.22
2023-04-21T03:37:56.854Z,9.63
2023-04-21T03:43:01.055Z,7.60
2023-04-21T03:48:05.188Z,7.57
2023-04-21T03:53:09.296Z,11.13
2023-04-21T03:58:13.220Z,10.20
2023-04-21T04:03:17.480Z,8.10
2023-04-21T04:08:22.461Z,7.32
2023-04-21T04:13:27.247Z,8.82
2023-04-21T04:18:31.532Z,7.95
2023-04-21T04:23:35.858Z,6.70
2023-04-21T04:28:39.913Z,7.93
2023-04-21T04:33:44.306Z,8.38
2023-04-21T04:38:49.464Z,7.70
2023-04-21T04:43:54.182Z,14.20
2023-04-21T04:48:58.307Z,5.85
2023-04-21T04:54:02.839Z,7.57
2023-04-21T04:59:07.662Z,7.55
2023-04-21T05:04:12.122Z,7.00
2023-04-21T05:09:17.137Z,7.80
2023-04-21T05:14:21.618Z,6.90
2023-04-21T05:19:26.682Z,9.63
2023-04-21T05:24:30.714Z,8.95
2023-04-21T05:29:35.033Z,7.57
2023-04-21T05:34:39.687Z,8.35
2023-04-21T05:39:43.606Z,8.77
2023-04-21T05:44:47.655Z,9.07
2023-04-21T05:49:54.994Z,8.55
2023-04-21T05:55:02.443Z,7.88
2023-04-21T06:00:08.642Z,7.05
2023-04-21T06:05:12.675Z,8.95
2023-04-21T06:10:18.296Z,6.63
2023-04-21T06:15:23.422Z,8.27
2023-04-21T06:20:29.217Z,9.43
2023-04-21T06:25:33.262Z,9.60
2023-04-21T06:30:37.238Z,8.38
2023-04-21T06:35:41.318Z,8.73
2023-04-21T06:40:45.722Z,8.35
2023-04-21T06:45:49.814Z,7.85
2023-04-21T06:50:53.807Z,8.32
2023-04-21T06:55:57.971Z,6.82
2023-04-21T07:01:03.010Z,6.38
2023-04-21T07:06:07.057Z,5.40
2023-04-21T07:11:11.282Z,5.60
2023-04-21T07:16:15.328Z,4.18
2023-04-21T07:21:19.608Z,4.88
2023-04-21T07:26:23.486Z,5.72
2023-04-21T07:31:27.671Z,5.03
2023-04-21T07:36:32.525Z,5.15
2023-04-21T07:41:37.073Z,5.97
2023-04-21T07:46:41.590Z,3.63
2023-04-21T07:51:45.629Z,3.40
2023-04-21T07:56:49.708Z,4.35
2023-04-21T08:01:53.613Z,2.88
2023-04-21T08:06:57.863Z,3.05
2023-04-21T08:12:03.049Z,6.68
2023-04-21T08:17:07.274Z,6.03
2023-04-21T08:22:11.517Z,14.18
2023-04-21T08:27:15.336Z,2.92
2023-04-21T08:32:24.597Z,4.45
2023-04-21T08:37:30.179Z,4.18
2023-04-21T08:42:36.463Z,3.65
2023-04-21T08:47:42.623Z,4.80
2023-04-21T08:52:46.580Z,4.82
2023-04-21T08:57:50.577Z,3.97
2023-04-21T09:03:02.791Z,3.55
2023-04-21T09:08:13.996Z,3.67
2023-04-21T09:13:19.676Z,6.28
2023-04-21T09:18:26.286Z,4.10
2023-04-21T09:23:30.585Z,5.90
2023-04-21T09:28:34.356Z,5.80
2023-04-21T09:33:45.907Z,3.90
2023-04-21T09:44:11.493Z,5.57
2023-04-21T09:49:19.149Z,4.35
2023-04-21T09:54:30.462Z,7.13
2023-04-21T09:59:42.043Z,5.20
2023-04-21T10:04:47.057Z,4.32
2023-04-21T10:09:57.160Z,3.55
2023-04-21T10:20:10.659Z,4.22
2023-04-21T10:25:15.485Z,5.18
2023-04-21T10:30:24.308Z,4.97
2023-04-21T10:36:05.849Z,5.65
2023-04-21T10:41:31.393Z,6.40
2023-04-21T10:46:37.502Z,5.85
2023-04-21T10:52:06.385Z,6.60
2023-04-21T10:57:13.707Z,5.78
2023-04-21T11:02:20.003Z,7.30
2023-04-21T11:07:25.687Z,6.05
2023-04-21T11:12:35.579Z,5.22
2023-04-21T11:22:44.373Z,5.22
2023-04-21T11:28:01.094Z,5.32
2023-04-21T11:33:05.113Z,8.45
2023-04-21T11:38:09.147Z,5.10
2023-04-21T11:43:13.334Z,5.25
2023-04-21T11:48:18.427Z,6.68
2023-04-21T11:53:22.517Z,6.85
2023-04-21T11:58:27.803Z,5.57
2023-04-21T12:03:33.884Z,6.80
2023-04-21T12:08:38.116Z,5.32
2023-04-21T12:13:42.290Z,6.10
2023-04-21T12:18:46.262Z,6.40
2023-04-21T12:23:50.382Z,6.15
2023-04-21T12:28:55.678Z,9.00
2023-04-21T12:34:00.039Z,8.18
2023-04-21T12:39:04.307Z,8.70
2023-04-21T12:44:08.455Z,8.80
2023-04-21T12:49:12.569Z,8.70
2023-04-21T12:54:16.603Z,8.55
2023-04-21T12:59:20.724Z,8.50
2023-04-21T13:04:24.980Z,9.95
2023-04-21T13:09:29.402Z,8.88
2023-04-21T13:14:33.696Z,9.07
2023-04-21T13:19:37.790Z,7.50
2023-04-21T13:24:41.959Z,8.20
2023-04-21T13:29:48.183Z,9.25
2023-04-21T13:34:52.245Z,11.43
2023-04-21T13:39:56.127Z,9.75
2023-04-21T13:45:00.763Z,8.38
2023-04-21T13:50:08.067Z,10.07
2023-04-21T13:55:12.278Z,9.73
2023-04-21T14:00:16.784Z,8.98
2023-04-21T14:05:21.201Z,8.07
2023-04-21T14:10:25.327Z,18.80
2023-04-21T14:15:29.344Z,13.10
2023-04-21T14:20:34.096Z,9.98
2023-04-21T14:25:38.361Z,9.77
2023-04-21T14:30:44.074Z,10.95
2023-04-21T14:35:47.946Z,10.63
2023-04-21T14:40:55.295Z,12.55
2023-04-21T14:45:59.477Z,11.32
2023-04-21T14:51:03.733Z,8.88
2023-04-21T14:56:07.997Z,10.93
2023-04-21T15:01:15.498Z,12.65
2023-04-21T15:06:19.820Z,12.32
2023-04-21T15:11:23.803Z,12.60
2023-04-21T15:16:28.031Z,18.80
2023-04-21T15:21:33.454Z,22.83
2023-04-21T15:26:38.374Z,16.23
2023-04-21T15:31:42.726Z,14.73
2023-04-21T15:36:46.685Z,13.95
2023-04-21T15:41:55.778Z,14.02
2023-04-21T15:46:59.914Z,16.83
2023-04-21T15:52:05.519Z,15.02
2023-04-21T15:57:09.627Z,22.08
2023-04-21T16:02:13.887Z,18.00
2023-04-21T16:07:18.354Z,17.67
2023-04-21T16:12:22.344Z,15.10
2023-04-21T16:17:28.476Z,17.67
2023-04-21T16:22:32.720Z,17.63
2023-04-21T16:27:36.644Z,21.00
2023-04-21T16:32:40.997Z,20.83
2023-04-21T16:37:45.245Z,20.33
2023-04-21T16:42:49.775Z,63.10
2023-04-21T16:47:53.802Z,28.88
2023-04-21T16:52:58.020Z,23.90
2023-04-21T16:58:02.051Z,23.88
2023-04-21T17:03:06.090Z,25.00
2023-04-21T17:08:10.324Z,22.98
2023-04-21T17:13:14.265Z,24.58
2023-04-21T17:18:18.542Z,25.98
2023-04-21T17:23:22.714Z,25.60
2023-04-21T17:28:27.047Z,18.80
2023-04-21T17:33:31.287Z,19.98
2023-04-21T17:38:35.223Z,20.35
2023-04-21T17:43:39.434Z,20.45
2023-04-21T17:48:43.578Z,25.50
2023-04-21T17:53:47.555Z,20.77
2023-04-21T17:58:51.621Z,24.77
2023-04-21T18:03:59.306Z,21.95
2023-04-21T18:09:07.986Z,21.90
2023-04-21T18:14:12.061Z,20.38
2023-04-21T18:19:16.713Z,22.73
2023-04-21T18:24:20.791Z,17.45
2023-04-21T18:29:24.727Z,17.75
2023-04-21T18:34:28.862Z,19.20
2023-04-21T18:39:32.900Z,20.50
2023-04-21T18:44:37.238Z,20.55
2023-04-21T18:49:41.819Z,15.90
2023-04-21T18:54:45.763Z,15.43
2023-04-21T18:59:49.824Z,16.42
2023-04-21T19:04:54.003Z,16.73
2023-04-21T19:09:58.095Z,18.83
2023-04-21T19:15:03.049Z,19.20
2023-04-21T19:20:08.818Z,25.75
2023-04-21T19:25:13.193Z,30.02
2023-04-21T19:30:17.109Z,22.25
2023-04-21T19:35:22.466Z,23.88
2023-04-21T19:40:27.485Z,22.95
2023-04-21T19:45:32.032Z,24.60
2023-04-21T19:50:36.438Z,22.13
2023-04-21T19:55:40.613Z,21.13
2023-04-21T20:00:47.092Z,24.58
2023-04-21T20:05:51.287Z,21.02
2023-04-21T20:10:55.287Z,21.05
2023-04-21T20:15:59.447Z,25.08
2023-04-21T20:21:03.611Z,23.35
2023-04-21T20:26:07.705Z,22.52
2023-04-21T20:31:11.858Z,22.75
2023-04-21T20:36:15.924Z,21.52
2023-04-21T20:41:23.669Z,22.52
2023-04-21T20:46:29.917Z,27.45
2023-04-21T20:51:34.245Z,25.27
2023-04-21T20:56:38.046Z,27.80
2023-04-21T21:01:42.397Z,29.52
2023-04-21T21:06:46.492Z,25.27
2023-04-21T21:11:50.665Z,22.40
2023-04-21T21:16:55.950Z,27.98
2023-04-21T21:22:00.136Z,26.60
2023-04-21T21:27:04.187Z,26.52
2023-04-21T21:32:08.307Z,24.33
2023-04-21T21:37:12.652Z,26.58
2023-04-21T21:42:16.537Z,29.75
2023-04-21T21:47:20.536Z,27.08
2023-04-21T21:52:25.306Z,26.85
2023-04-21T21:57:29.728Z,22.88
2023-04-21T22:02:33.811Z,27.65
2023-04-21T22:07:41.519Z,24.90
2023-04-21T22:12:46.748Z,26.13
2023-04-21T22:17:51.023Z,28.23
2023-04-21T22:22:55.069Z,25.20
2023-04-21T22:27:59.250Z,24.60
2023-04-21T22:33:03.521Z,22.52
2023-04-21T22:38:07.722Z,25.30
2023-04-21T22:43:11.969Z,24.60
2023-04-21T22:48:16.072Z,28.73
2023-04-21T22:53:20.121Z,27.85
2023-04-21T22:58:25.515Z,25.77
2023-04-21T23:03:31.372Z,23.15
2023-04-21T23:08:35.406Z,24.23
2023-04-21T23:13:40.647Z,27.60
2023-04-21T23:18:44.588Z,19.38
2023-04-21T23:23:48.617Z,24.23
2023-04-21T23:28:52.835Z,25.90
2023-04-21T23:33:56.901Z,24.52
2023-04-21T23:39:01.708Z,23.17
2023-04-21T23:44:06.094Z,24.15
2023-04-21T23:49:10.104Z,21.00
2023-04-21T23:54:14.325Z,22.13
2023-04-21T23:59:18.426Z,18.45
